createdAt,value
2022-11-01T00:00:13.671Z,6.10
2022-11-01T00:02:42.829Z,5.87
2022-11-01T00:05:12.577Z,5.43
2022-11-01T00:07:42.343Z,5.67
2022-11-01T00:10:12.230Z,5.67
2022-11-01T00:12:41.977Z,6.07
2022-11-01T00:15:11.760Z,5.40
2022-11-01T00:17:41.807Z,5.45
2022-11-01T00:20:14.034Z,6.22
2022-11-01T00:22:43.809Z,5.80
2022-11-01T00:25:14.343Z,6.03
2022-11-01T00:27:44.049Z,5.23
2022-11-01T00:30:14.937Z,5.52
2022-11-01T00:32:45.321Z,5.33
2022-11-01T00:35:14.931Z,5.55
2022-11-01T00:37:44.672Z,6.30
2022-11-01T00:40:14.338Z,5.95
2022-11-01T00:42:44.135Z,6.10
2022-11-01T00:45:14.003Z,6.70
2022-11-01T00:47:44.066Z,6.60
2022-11-01T00:50:15.898Z,5.74
2022-11-01T00:52:45.672Z,5.97
2022-11-01T00:55:15.771Z,5.40
2022-11-01T00:57:46.274Z,5.83
2022-11-01T01:00:16.918Z,5.67
2022-11-01T01:02:46.668Z,5.90
2022-11-01T01:05:16.130Z,6.67
2022-11-01T01:07:45.854Z,5.67
2022-11-01T01:10:15.583Z,5.53
2022-11-01T01:12:45.143Z,5.55
2022-11-01T01:15:14.689Z,5.97
2022-11-01T01:17:44.515Z,5.93
2022-11-01T01:20:16.613Z,6.00
2022-11-01T01:22:46.950Z,6.47
2022-11-01T01:25:17.454Z,5.33
2022-11-01T01:27:46.962Z,6.10
2022-11-01T01:30:17.242Z,4.53
2022-11-01T01:32:47.083Z,5.90
2022-11-01T01:35:16.755Z,5.58
2022-11-01T01:37:46.573Z,5.77
2022-11-01T01:40:16.076Z,5.47
2022-11-01T01:42:47.237Z,5.40
2022-11-01T01:45:35.029Z,5.97
2022-11-01T01:48:17.610Z,5.20
2022-11-01T01:50:57.126Z,5.87
2022-11-01T01:53:41.340Z,4.73
2022-11-01T01:56:21.250Z,5.00
2022-11-01T01:58:57.322Z,6.07
2022-11-01T02:03:57.441Z,5.53
2022-11-01T02:06:27.324Z,5.23
2022-11-01T02:09:00.494Z,4.53
2022-11-01T02:11:30.288Z,5.23
2022-11-01T02:14:00.526Z,4.43
2022-11-01T02:16:49.908Z,4.90
2022-11-01T02:19:25.513Z,4.73
2022-11-01T02:22:00.958Z,4.87
2022-11-01T02:24:46.092Z,4.77
2022-11-01T02:27:24.552Z,4.07
2022-11-01T02:30:25.135Z,4.47
2022-11-01T02:32:57.920Z,4.73
2022-11-01T02:35:42.415Z,3.87
2022-11-01T02:38:26.630Z,4.20
2022-11-01T02:41:05.257Z,4.17
2022-11-01T02:43:46.995Z,4.03
2022-11-01T02:46:36.178Z,4.30
2022-11-01T02:49:06.665Z,3.83
2022-11-01T02:51:38.476Z,3.87
2022-11-01T02:54:12.412Z,3.92
2022-11-01T02:56:42.323Z,4.50
2022-11-01T02:59:15.416Z,4.35
2022-11-01T03:01:48.366Z,3.63
2022-11-01T03:04:18.519Z,4.13
2022-11-01T03:06:51.270Z,4.17
2022-11-01T03:09:21.127Z,3.57
2022-11-01T03:11:56.703Z,4.23
2022-11-01T03:14:34.944Z,4.33
2022-11-01T03:17:25.644Z,3.70
2022-11-01T03:20:10.441Z,3.50
2022-11-01T03:22:58.057Z,3.17
2022-11-01T03:25:44.219Z,4.07
2022-11-01T03:28:25.329Z,3.90
2022-11-01T03:31:03.505Z,5.17
2022-11-01T03:33:36.158Z,3.87
2022-11-01T03:36:13.493Z,3.80
2022-11-01T03:38:43.613Z,3.93
2022-11-01T03:41:16.950Z,3.70
2022-11-01T03:43:47.745Z,3.50
2022-11-01T03:46:17.668Z,4.13
2022-11-01T03:48:47.494Z,3.20
2022-11-01T03:51:17.234Z,3.87
2022-11-01T03:53:47.153Z,3.30
2022-11-01T03:56:16.843Z,3.20
2022-11-01T03:58:46.900Z,3.00
2022-11-01T04:01:18.463Z,3.20
2022-11-01T04:03:48.092Z,2.90
2022-11-01T04:06:17.895Z,2.60
2022-11-01T04:08:47.984Z,2.40
2022-11-01T04:11:18.012Z,2.35
2022-11-01T04:13:49.269Z,2.00
2022-11-01T04:16:36.675Z,1.50
2022-11-01T04:19:24.267Z,1.17
2022-11-01T04:21:54.020Z,0.90
2022-11-01T04:24:23.775Z,0.98
2022-11-01T04:26:53.503Z,0.93
2022-11-01T04:29:23.228Z,1.20
2022-11-01T04:31:52.992Z,1.00
2022-11-01T04:34:24.723Z,0.80
2022-11-01T04:36:54.415Z,0.73
2022-11-01T04:39:24.154Z,0.53
2022-11-01T04:41:53.884Z,0.37
2022-11-01T04:44:23.613Z,0.40
2022-11-01T04:46:53.361Z,0.50
2022-11-01T04:49:23.069Z,0.30
2022-11-01T04:51:52.813Z,0.60
2022-11-01T04:54:22.536Z,0.40
2022-11-01T04:56:52.564Z,0.60
2022-11-01T04:59:22.293Z,0.50
2022-11-01T05:01:52.507Z,0.45
2022-11-01T05:04:22.041Z,0.50
2022-11-01T05:06:51.796Z,0.43
2022-11-01T05:09:21.510Z,0.60
2022-11-01T05:11:51.244Z,0.57
2022-11-01T05:14:21.060Z,0.40
2022-11-01T05:16:50.856Z,0.40
2022-11-01T05:19:20.594Z,0.43
2022-11-01T05:21:50.568Z,0.40
2022-11-01T05:24:20.358Z,0.95
2022-11-01T05:26:51.243Z,0.40
2022-11-01T05:29:31.408Z,0.50
2022-11-01T05:31:52.389Z,0.33
2022-11-01T05:34:22.211Z,0.40
2022-11-01T05:36:51.939Z,0.63
2022-11-01T05:39:21.667Z,0.50
2022-11-01T05:41:53.832Z,0.40
2022-11-01T05:44:24.465Z,0.50
2022-11-01T05:46:54.221Z,0.50
2022-11-01T05:49:24.619Z,0.60
2022-11-01T05:51:54.327Z,0.73
2022-11-01T05:54:24.255Z,0.53
2022-11-01T05:56:53.964Z,0.63
2022-11-01T05:59:23.709Z,0.80
2022-11-01T06:01:53.586Z,0.50
2022-11-01T06:04:24.006Z,0.85
2022-11-01T06:06:53.734Z,0.80
2022-11-01T06:09:23.765Z,1.00
2022-11-01T06:11:53.488Z,0.50
2022-11-01T06:14:23.039Z,0.50
2022-11-01T06:16:52.800Z,1.03
2022-11-01T06:19:22.529Z,0.40
2022-11-01T06:21:52.313Z,0.80
2022-11-01T06:24:22.093Z,0.60
2022-11-01T06:26:51.828Z,0.50
2022-11-01T06:29:21.948Z,0.60
2022-11-01T06:31:51.689Z,0.80
2022-11-01T06:34:21.389Z,0.50
2022-11-01T06:36:51.481Z,0.60
2022-11-01T06:39:21.204Z,0.70
2022-11-01T06:41:52.448Z,0.68
2022-11-01T06:44:23.064Z,1.13
2022-11-01T06:46:54.699Z,1.10
2022-11-01T06:49:24.492Z,1.00
2022-11-01T06:51:54.222Z,1.50
2022-11-01T06:54:24.374Z,1.20
2022-11-01T06:56:54.144Z,0.80
2022-11-01T06:59:24.890Z,1.27
2022-11-01T07:01:55.553Z,0.77
2022-11-01T07:04:26.974Z,1.37
2022-11-01T07:06:56.630Z,1.67
2022-11-01T07:09:26.340Z,1.27
2022-11-01T07:11:56.448Z,1.32
2022-11-01T07:14:26.393Z,1.37
2022-11-01T07:16:56.134Z,0.97
2022-11-01T07:19:25.913Z,1.10
2022-11-01T07:21:55.699Z,1.07
2022-11-01T07:24:25.441Z,1.05
2022-11-01T07:26:55.167Z,1.20
2022-11-01T07:29:24.901Z,1.23
2022-11-01T07:31:54.924Z,0.65
2022-11-01T07:34:24.656Z,0.85
2022-11-01T07:36:54.578Z,1.35
2022-11-01T07:39:24.916Z,1.80
2022-11-01T07:41:54.631Z,1.47
2022-11-01T07:44:24.368Z,1.22
2022-11-01T07:46:54.093Z,1.33
2022-11-01T07:49:23.850Z,1.03
2022-11-01T07:51:53.576Z,1.30
2022-11-01T07:54:25.819Z,0.90
2022-11-01T07:56:55.877Z,1.50
2022-11-01T07:59:25.954Z,1.40
2022-11-01T08:01:56.086Z,1.32
2022-11-01T08:04:25.624Z,1.40
2022-11-01T08:06:55.363Z,1.27
2022-11-01T08:09:25.153Z,1.50
2022-11-01T08:11:54.832Z,1.10
2022-11-01T08:14:24.269Z,1.00
2022-11-01T08:16:55.633Z,1.90
2022-11-01T08:19:25.381Z,2.30
2022-11-01T08:21:56.613Z,2.30
2022-11-01T08:24:27.400Z,1.70
2022-11-01T08:26:57.168Z,1.37
2022-11-01T08:29:26.875Z,1.60
2022-11-01T08:31:56.618Z,1.67
2022-11-01T08:34:26.664Z,1.30
2022-11-01T08:36:56.699Z,1.50
2022-11-01T08:39:27.268Z,2.37
2022-11-01T08:41:58.767Z,2.20
2022-11-01T08:44:28.203Z,1.72
2022-11-01T08:46:59.605Z,2.20
2022-11-01T08:49:29.400Z,1.90
2022-11-01T08:51:59.145Z,2.20
2022-11-01T08:54:28.764Z,2.00
2022-11-01T08:56:58.696Z,2.03
2022-11-01T08:59:29.176Z,1.75
2022-11-01T09:01:59.054Z,1.70
2022-11-01T09:04:28.905Z,1.80
2022-11-01T09:06:58.650Z,1.87
2022-11-01T09:09:29.265Z,2.10
2022-11-01T09:11:59.063Z,1.90
2022-11-01T09:14:28.852Z,1.70
2022-11-01T09:16:58.600Z,1.90
2022-11-01T09:19:28.348Z,1.87
2022-11-01T09:21:58.090Z,1.67
2022-11-01T09:24:27.558Z,2.45
2022-11-01T09:26:57.293Z,1.60
2022-11-01T09:29:27.086Z,2.30
2022-11-01T09:31:56.851Z,1.73
2022-11-01T09:34:26.477Z,1.87
2022-11-01T09:36:56.277Z,1.47
2022-11-01T09:39:26.485Z,2.10
2022-11-01T09:42:01.949Z,1.20
2022-11-01T09:44:34.923Z,2.03
2022-11-01T09:47:10.153Z,2.20
2022-11-01T09:49:42.791Z,2.17
2022-11-01T09:52:24.227Z,1.80
2022-11-01T09:54:54.100Z,1.67
2022-11-01T09:57:32.837Z,1.70
2022-11-01T10:00:08.834Z,1.55
2022-11-01T10:02:41.899Z,1.07
2022-11-01T10:05:30.165Z,2.47
2022-11-01T10:08:12.116Z,2.05
2022-11-01T10:10:44.638Z,2.00
2022-11-01T10:13:17.708Z,1.85
2022-11-01T10:15:59.601Z,2.00
2022-11-01T10:18:33.701Z,1.97
2022-11-01T10:21:06.495Z,1.73
2022-11-01T10:23:39.255Z,1.50
2022-11-01T10:26:16.716Z,1.50
2022-11-01T10:28:52.444Z,2.20
2022-11-01T10:31:24.983Z,1.47
2022-11-01T10:34:07.499Z,1.70
2022-11-01T10:36:39.553Z,1.90
2022-11-01T10:41:49.848Z,2.50
2022-11-01T10:44:33.923Z,1.60
2022-11-01T10:47:08.077Z,2.00
2022-11-01T10:50:00.675Z,1.70
2022-11-01T10:52:15.539Z,1.65
2022-11-01T10:54:47.476Z,2.30
2022-11-01T10:57:25.862Z,1.93
2022-11-01T10:59:58.008Z,1.30
2022-11-01T11:02:36.680Z,1.70
2022-11-01T11:05:08.403Z,1.70
2022-11-01T11:07:38.224Z,1.83
2022-11-01T11:10:24.833Z,1.60
2022-11-01T11:12:57.803Z,2.17
2022-11-01T11:15:36.365Z,1.30
2022-11-01T11:18:11.769Z,1.47
2022-11-01T11:20:41.738Z,1.77
2022-11-01T11:23:13.246Z,1.35
2022-11-01T11:25:44.804Z,1.40
2022-11-01T11:28:23.382Z,1.37
2022-11-01T11:30:53.662Z,1.50
2022-11-01T11:33:24.030Z,1.85
2022-11-01T11:36:00.869Z,1.33
2022-11-01T11:38:45.176Z,1.60
2022-11-01T11:41:29.956Z,2.02
2022-11-01T11:44:01.028Z,1.45
2022-11-01T11:46:30.821Z,1.47
2022-11-01T11:49:03.746Z,1.60
2022-11-01T11:51:38.632Z,1.10
2022-11-01T11:54:28.753Z,1.90
2022-11-01T11:57:13.534Z,1.47
2022-11-01T12:02:23.309Z,1.70
2022-11-01T12:05:03.477Z,1.60
2022-11-01T12:07:38.680Z,1.80
2022-11-01T12:10:29.047Z,1.60
2022-11-01T12:12:59.660Z,1.40
2022-11-01T12:15:41.110Z,1.70
2022-11-01T12:18:18.248Z,2.10
2022-11-01T12:20:52.796Z,1.37
2022-11-01T12:23:31.429Z,1.63
2022-11-01T12:26:04.106Z,0.90
2022-11-01T12:28:42.567Z,1.30
2022-11-01T12:31:15.062Z,1.65
2022-11-01T12:33:50.201Z,1.23
2022-11-01T12:36:34.551Z,1.20
2022-11-01T12:39:13.743Z,0.90
2022-11-01T12:44:28.318Z,1.30
2022-11-01T12:47:17.509Z,1.37
2022-11-01T12:49:56.412Z,1.50
2022-11-01T12:52:41.160Z,2.10
2022-11-01T12:55:22.136Z,1.23
2022-11-01T12:57:52.013Z,1.27
2022-11-01T13:00:22.121Z,1.20
2022-11-01T13:03:23.214Z,1.40
2022-11-01T13:06:07.802Z,1.30
2022-11-01T13:09:07.252Z,1.60
2022-11-01T13:11:40.056Z,1.30
2022-11-01T13:14:30.188Z,1.40
2022-11-01T13:17:05.972Z,1.10
2022-11-01T13:19:44.017Z,1.00
2022-11-01T13:22:16.809Z,1.32
2022-11-01T13:24:52.146Z,1.00
2022-11-01T13:27:39.594Z,1.27
2022-11-01T13:30:14.186Z,0.80
2022-11-01T13:33:07.443Z,1.60
2022-11-01T13:36:06.182Z,1.50
2022-11-01T13:38:41.475Z,1.10
2022-11-01T13:41:31.644Z,1.50
2022-11-01T13:44:14.305Z,1.47
2022-11-01T13:47:08.366Z,1.07
2022-11-01T13:49:47.377Z,0.93
2022-11-01T13:52:27.375Z,0.98
2022-11-01T13:55:08.685Z,1.20
2022-11-01T13:57:44.859Z,0.90
2022-11-01T14:00:43.359Z,1.10
2022-11-01T14:03:24.870Z,1.70
2022-11-01T14:06:12.330Z,1.23
2022-11-01T14:08:47.114Z,1.27
2022-11-01T14:11:45.438Z,1.40
2022-11-01T14:14:36.192Z,1.36
2022-11-01T14:17:23.464Z,1.10
2022-11-01T14:20:03.701Z,1.27
2022-11-01T14:22:34.660Z,0.90
2022-11-01T14:25:08.848Z,1.20
2022-11-01T14:27:41.149Z,0.90
2022-11-01T14:30:18.149Z,1.25
2022-11-01T14:32:50.968Z,1.47
2022-11-01T14:35:29.305Z,0.90
2022-11-01T14:38:02.785Z,0.80
2022-11-01T14:40:47.446Z,0.87
2022-11-01T14:43:32.127Z,1.00
2022-11-01T14:46:10.787Z,1.40
2022-11-01T14:48:58.372Z,0.77
2022-11-01T14:51:39.883Z,1.10
2022-11-01T14:54:22.934Z,0.86
2022-11-01T14:56:55.645Z,0.70
2022-11-01T14:59:28.409Z,1.17
2022-11-01T15:02:02.954Z,1.00
2022-11-01T15:04:35.335Z,1.40
2022-11-01T15:07:05.370Z,0.97
2022-11-01T15:09:35.193Z,0.90
2022-11-01T15:12:09.170Z,0.80
2022-11-01T15:14:41.956Z,1.13
2022-11-01T15:17:30.432Z,1.25
2022-11-01T15:20:03.221Z,1.03
2022-11-01T15:22:34.265Z,1.10
2022-11-01T15:25:06.330Z,1.10
2022-11-01T15:27:42.124Z,0.83
2022-11-01T15:30:32.333Z,1.03
2022-11-01T15:33:17.434Z,1.03
2022-11-01T15:35:50.202Z,1.40
2022-11-01T15:38:21.246Z,1.22
2022-11-01T15:40:52.118Z,1.10
2022-11-01T15:43:30.185Z,1.97
2022-11-01T15:46:02.047Z,1.40
2022-11-01T15:48:35.094Z,1.30
2022-11-01T15:51:07.402Z,1.47
2022-11-01T15:56:00.338Z,1.10
2022-11-01T15:58:35.914Z,1.20
2022-11-01T16:01:13.115Z,1.30
2022-11-01T16:03:55.500Z,1.20
2022-11-01T16:06:27.990Z,1.52
2022-11-01T16:09:00.842Z,1.40
2022-11-01T16:11:33.139Z,1.07
2022-11-01T16:14:07.110Z,0.90
2022-11-01T16:17:05.616Z,1.37
2022-11-01T16:19:43.226Z,1.13
2022-11-01T16:22:31.249Z,1.37
2022-11-01T16:25:10.083Z,1.10
2022-11-01T16:28:11.376Z,1.43
2022-11-01T16:30:51.806Z,1.00
2022-11-01T16:33:30.477Z,1.30
2022-11-01T16:36:03.369Z,1.30
2022-11-01T16:38:38.978Z,1.10
2022-11-01T16:41:17.882Z,1.83
2022-11-01T16:43:57.745Z,1.32
2022-11-01T16:46:29.554Z,1.50
2022-11-01T16:49:05.609Z,1.77
2022-11-01T16:51:37.088Z,1.10
2022-11-01T16:54:13.342Z,1.40
2022-11-01T16:56:48.784Z,1.80
2022-11-01T16:59:30.241Z,1.92
2022-11-01T17:02:01.635Z,2.10
2022-11-01T17:04:32.225Z,1.70
2022-11-01T17:07:02.032Z,1.53
2022-11-01T17:09:33.803Z,2.27
2022-11-01T17:12:03.668Z,1.60
2022-11-01T17:14:35.237Z,1.77
2022-11-01T17:17:08.586Z,1.20
2022-11-01T17:19:41.500Z,1.20
2022-11-01T17:22:17.707Z,1.57
2022-11-01T17:24:47.918Z,1.60
2022-11-01T17:27:18.966Z,1.53
2022-11-01T17:29:48.993Z,1.80
2022-11-01T17:32:18.843Z,1.60
2022-11-01T17:34:49.360Z,1.90
2022-11-01T17:37:19.204Z,2.00
2022-11-01T17:39:49.246Z,2.30
2022-11-01T17:42:18.887Z,1.90
2022-11-01T17:44:48.603Z,2.15
2022-11-01T17:47:18.486Z,2.10
2022-11-01T17:49:48.527Z,1.50
2022-11-01T17:52:18.161Z,1.63
2022-11-01T17:54:48.310Z,1.77
2022-11-01T17:57:18.061Z,1.93
2022-11-01T17:59:48.063Z,1.33
2022-11-01T18:02:17.963Z,1.67
2022-11-01T18:04:48.137Z,1.67
2022-11-01T18:07:18.155Z,1.65
2022-11-01T18:09:48.289Z,1.80
2022-11-01T18:12:23.464Z,2.33
2022-11-01T18:15:10.570Z,1.73
2022-11-01T18:17:50.225Z,2.03
2022-11-01T18:20:31.696Z,1.50
2022-11-01T18:23:13.484Z,1.93
2022-11-01T18:25:51.257Z,1.93
2022-11-01T18:28:24.820Z,1.80
2022-11-01T18:31:03.321Z,1.63
2022-11-01T18:33:42.117Z,1.47
2022-11-01T18:36:25.877Z,2.30
2022-11-01T18:39:19.656Z,1.80
2022-11-01T18:41:50.550Z,1.53
2022-11-01T18:44:20.027Z,1.60
2022-11-01T18:46:56.782Z,1.50
2022-11-01T18:49:30.166Z,1.43
2022-11-01T18:52:00.354Z,1.92
2022-11-01T18:54:32.998Z,1.70
2022-11-01T18:57:16.048Z,1.92
2022-11-01T18:59:49.421Z,4.13
2022-11-01T19:02:31.117Z,1.70
2022-11-01T19:05:17.571Z,1.57
2022-11-01T19:10:24.418Z,2.02
2022-11-01T19:12:54.969Z,1.30
2022-11-01T19:15:28.233Z,1.37
2022-11-01T19:18:07.695Z,1.47
2022-11-01T19:20:40.793Z,1.47
2022-11-01T19:23:19.399Z,1.50
2022-11-01T19:25:49.982Z,1.63
2022-11-01T19:28:31.303Z,2.40
2022-11-01T19:31:04.132Z,1.97
2022-11-01T19:33:38.785Z,1.77
2022-11-01T19:36:17.347Z,1.60
2022-11-01T19:38:48.929Z,1.60
2022-11-01T19:41:24.743Z,2.13
2022-11-01T19:43:57.834Z,2.30
2022-11-01T19:46:27.531Z,1.42
2022-11-01T19:48:57.023Z,1.70
2022-11-01T19:51:26.925Z,2.07
2022-11-01T19:53:56.781Z,1.80
2022-11-01T19:56:29.956Z,1.55
2022-11-01T19:59:03.189Z,1.70
2022-11-01T20:01:36.410Z,1.85
2022-11-01T20:04:31.468Z,1.62
2022-11-01T20:07:15.726Z,1.67
2022-11-01T20:09:45.706Z,1.30
2022-11-01T20:12:19.997Z,1.67
2022-11-01T20:14:47.085Z,1.70
2022-11-01T20:17:16.945Z,1.30
2022-11-01T20:19:48.328Z,1.50
2022-11-01T20:22:18.239Z,1.67
2022-11-01T20:24:47.977Z,1.50
2022-11-01T20:27:18.220Z,1.53
2022-11-01T20:29:50.024Z,1.70
2022-11-01T20:32:19.727Z,2.20
2022-11-01T20:34:50.532Z,1.67
2022-11-01T20:37:28.439Z,1.70
2022-11-01T20:39:51.929Z,1.77
2022-11-01T20:42:21.672Z,1.33
2022-11-01T20:44:51.953Z,2.43
2022-11-01T20:47:22.089Z,1.90
2022-11-01T20:49:51.861Z,2.20
2022-11-01T20:54:53.119Z,2.25
2022-11-01T20:57:27.928Z,1.50
2022-11-01T20:59:54.686Z,1.87
2022-11-01T21:02:24.641Z,1.87
2022-11-01T21:05:03.222Z,1.80
2022-11-01T21:07:35.124Z,2.03
2022-11-01T21:10:07.922Z,1.97
2022-11-01T21:12:50.787Z,2.13
2022-11-01T21:15:39.907Z,1.92
2022-11-01T21:18:12.733Z,1.92
2022-11-01T21:20:45.020Z,2.17
2022-11-01T21:23:23.645Z,1.60
2022-11-01T21:25:57.216Z,1.90
2022-11-01T21:28:35.382Z,1.50
2022-11-01T21:31:16.792Z,1.67
2022-11-01T21:34:13.505Z,1.82
2022-11-01T21:36:48.118Z,1.57
2022-11-01T21:39:25.120Z,1.73
2022-11-01T21:42:02.594Z,2.07
2022-11-01T21:44:39.594Z,2.03
2022-11-01T21:47:24.245Z,1.70
2022-11-01T21:49:54.154Z,1.60
2022-11-01T21:52:24.415Z,1.32
2022-11-01T21:54:54.526Z,1.47
2022-11-01T21:57:24.472Z,2.67
2022-11-01T21:59:54.172Z,1.70
2022-11-01T22:02:23.963Z,1.57
2022-11-01T22:04:55.165Z,2.07
2022-11-01T22:07:25.109Z,2.13
2022-11-01T22:09:54.848Z,1.57
2022-11-01T22:12:24.584Z,2.13
2022-11-01T22:14:54.645Z,1.57
2022-11-01T22:17:24.451Z,1.57
2022-11-01T22:19:54.177Z,2.37
2022-11-01T22:22:24.019Z,1.30
2022-11-01T22:24:53.746Z,1.87
2022-11-01T22:27:23.770Z,1.42
2022-11-01T22:29:53.826Z,1.67
2022-11-01T22:32:23.585Z,1.80
2022-11-01T22:34:53.402Z,1.63
2022-11-01T22:37:23.049Z,1.70
2022-11-01T22:39:53.882Z,1.83
2022-11-01T22:42:23.405Z,1.43
2022-11-01T22:44:52.870Z,1.40
2022-11-01T22:47:28.437Z,1.83
2022-11-01T22:50:01.112Z,2.53
2022-11-01T22:52:39.267Z,1.90
2022-11-01T22:55:14.489Z,2.50
2022-11-01T22:57:47.838Z,1.77
2022-11-01T23:00:38.922Z,1.87
2022-11-01T23:03:23.479Z,1.42
2022-11-01T23:05:55.939Z,1.60
2022-11-01T23:08:36.393Z,1.90
2022-11-01T23:11:06.226Z,2.00
2022-11-01T23:13:55.961Z,2.63
2022-11-01T23:16:40.842Z,2.40
2022-11-01T23:19:13.678Z,1.33
2022-11-01T23:21:43.422Z,1.50
2022-11-01T23:24:12.963Z,1.63
2022-11-01T23:26:42.787Z,1.83
2022-11-01T23:29:12.805Z,1.52
2022-11-01T23:31:42.558Z,1.77
2022-11-01T23:34:12.787Z,1.80
2022-11-01T23:36:42.886Z,1.97
2022-11-01T23:39:14.542Z,1.65
2022-11-01T23:41:47.789Z,2.00
2022-11-01T23:44:37.703Z,1.57
2022-11-01T23:47:22.138Z,2.00
2022-11-01T23:49:58.050Z,1.80
2022-11-01T23:55:16.949Z,1.26
2022-11-01T23:57:47.278Z,1.47
